Roanoke, Ohio
Current Conditions -  °F | °C
As of 10:53 PM on Saturday 22 Nov 2014 (Local Time) from KPHD Reporting Station
Overcast Overcast  
Wind Chill: 49°   Ceiling: 6000
Heat Index: 49°   Visibility: 10mi
Dew Point: 31°   Wind: 3mph
Humidity: 50%   Direction: 160°SSE
Pressure: 30.09"   Gusts: NA
Location:  40.3767°N, 81.2875°W
Report Text: KPHD 230353Z AUTO 16003KT 10SM BKN060 OVC080 09/M01 A3009 RMK AO2 SLP196 T00941006
Loading
Personal Weather Stations






























Interactive Weather Map New forecast layout! Learn more

10-Day Weather Forecast

Advertisements
Track Severe Weather on mobile